Time;durP1;ratioP1;P1;durP2;ratioP2;P2;SDS_P1;SDS_P2;PMS_P1;PMS_P2;Temp;Humidity;BMP_temperature;BMP_pressure;BME280_temperature;BME280_humidity;BME280_pressure;Samples;Min_cycle;Max_cycle;Signal;HPM_P1;HPM_P2
2022/07/29 02:47:49;;;;;;;1.05;0.20;;;18.30;98.20;;;;;;5197623;23;93217;-78
2022/07/29 02:50:34;;;;;;;1.10;0.10;;;18.30;97.90;;;;;;4877581;28;92899;-77
2022/07/29 02:53:18;;;;;;;0.60;0.10;;;18.30;98.00;;;;;;4876257;28;91946;-77
2022/07/29 02:55:55;;;;;;;0.50;0.20;;;18.30;98.30;;;;;;4879201;28;92764;-76
2022/07/29 02:58:41;;;;;;;0.82;0.20;;;18.20;98.40;;;;;;4889729;28;91993;-77
2022/07/29 03:01:15;;;;;;;1.38;0.20;;;18.10;98.70;;;;;;4898263;28;92290;-76
2022/07/29 03:03:44;;;;;;;0.60;0.10;;;18.10;99.30;;;;;;4897427;28;91799;-78
2022/07/29 03:06:13;;;;;;;1.55;0.20;;;18.10;99.50;;;;;;4896553;28;92719;-78
2022/07/29 03:08:40;;;;;;;1.67;0.30;;;18.00;98.60;;;;;;4896121;28;92354;-77
2022/07/29 03:11:08;;;;;;;4.07;0.20;;;18.00;99.30;;;;;;4897182;28;92015;-77
2022/07/29 03:13:35;;;;;;;2.05;0.10;;;18.00;99.70;;;;;;4898211;28;92098;-78
2022/07/29 03:16:01;;;;;;;1.27;0.20;;;18.00;99.70;;;;;;4897055;28;93159;-77
2022/07/29 03:18:27;;;;;;;0.65;0.20;;;18.00;99.80;;;;;;4897020;28;93771;-77
2022/07/29 03:20:53;;;;;;;1.55;0.20;;;18.00;99.70;;;;;;4878697;28;92225;-78
2022/07/29 03:23:23;;;;;;;1.75;0.20;;;17.90;99.70;;;;;;4881225;28;92308;-77
2022/07/29 03:25:52;;;;;;;0.50;0.10;;;17.90;99.90;;;;;;4897398;28;92347;-77
2022/07/29 03:28:19;;;;;;;2.63;0.20;;;17.90;99.90;;;;;;4896811;28;91994;-78
2022/07/29 03:30:45;;;;;;;1.25;0.13;;;17.90;99.90;;;;;;4897476;28;92162;-77
2022/07/29 03:33:11;;;;;;;0.70;0.10;;;18.00;99.40;;;;;;4880293;28;91356;-76
2022/07/29 03:35:37;;;;;;;1.10;0.10;;;18.00;99.30;;;;;;4877633;28;92177;-78
2022/07/29 03:38:03;;;;;;;1.40;0.20;;;18.10;98.80;;;;;;4885173;28;92080;-80
2022/07/29 03:40:38;;;;;;;1.85;0.10;;;18.20;98.30;;;;;;4881749;28;93031;-76
2022/07/29 03:43:05;;;;;;;1.05;0.22;;;18.30;97.80;;;;;;4897406;28;92510;-80
2022/07/29 03:45:33;;;;;;;2.78;0.22;;;18.30;97.60;;;;;;4882659;28;91949;-77
2022/07/29 03:48:09;;;;;;;0.80;0.20;;;18.30;97.30;;;;;;4884509;28;92153;-77
2022/07/29 03:50:35;;;;;;;0.98;0.20;;;18.30;97.00;;;;;;4896940;28;91917;-79
2022/07/29 03:53:02;;;;;;;1.38;0.20;;;18.30;97.30;;;;;;4897779;28;92067;-78
2022/07/29 03:55:32;;;;;;;1.10;0.20;;;18.30;97.30;;;;;;4896376;28;93387;-77
2022/07/29 03:57:59;;;;;;;1.35;0.15;;;18.30;96.90;;;;;;4896072;28;92112;-77
2022/07/29 04:00:26;;;;;;;0.98;0.10;;;18.40;96.10;;;;;;4897365;28;92012;-79
2022/07/29 04:02:52;;;;;;;1.10;0.15;;;18.50;96.10;;;;;;4898846;28;91759;-77
2022/07/29 04:05:18;;;;;;;0.90;0.20;;;18.60;96.20;;;;;;4903993;28;93143;-77
2022/07/29 04:07:45;;;;;;;1.00;0.22;;;18.70;95.20;;;;;;4898163;28;93282;-77
2022/07/29 04:10:11;;;;;;;1.67;0.20;;;18.80;95.20;;;;;;4901699;28;92062;-76
2022/07/29 04:12:37;;;;;;;2.25;0.20;;;18.90;94.00;;;;;;4919547;28;92164;-80
2022/07/29 04:15:04;;;;;;;2.70;0.28;;;19.00;93.90;;;;;;4908553;28;92120;-78
2022/07/29 04:17:29;;;;;;;0.93;0.20;;;19.10;93.80;;;;;;4900305;28;92507;-76
2022/07/29 04:19:55;;;;;;;1.65;0.20;;;19.10;93.90;;;;;;4911266;28;91988;-76
2022/07/29 04:22:21;;;;;;;0.77;0.15;;;19.10;93.70;;;;;;4913320;28;91612;-79
2022/07/29 04:24:47;;;;;;;1.08;0.22;;;19.10;93.30;;;;;;4899079;28;92140;-78
2022/07/29 04:27:12;;;;;;;1.52;0.30;;;19.50;93.00;;;;;;4899841;28;92443;-76
2022/07/29 04:29:38;;;;;;;0.70;0.10;;;20.10;90.80;;;;;;4899478;28;92973;-79
2022/07/29 04:32:04;;;;;;;1.10;0.20;;;20.50;88.60;;;;;;4899540;28;91889;-78
2022/07/29 04:34:30;;;;;;;0.82;0.20;;;20.50;87.30;;;;;;4898844;28;92591;-76
2022/07/29 04:36:56;;;;;;;2.38;0.30;;;20.30;89.20;;;;;;4910096;28;92022;-77
2022/07/29 04:39:21;;;;;;;1.42;0.20;;;20.10;88.90;;;;;;4917060;28;92042;-76
2022/07/29 04:41:47;;;;;;;2.03;0.22;;;20.40;88.80;;;;;;4900300;28;92268;-77
2022/07/29 04:44:13;;;;;;;1.63;0.30;;;20.50;87.40;;;;;;4897168;28;92667;-78
2022/07/29 04:46:39;;;;;;;2.60;0.32;;;20.50;87.50;;;;;;4899203;28;92049;-81
2022/07/29 04:49:05;;;;;;;1.30;0.30;;;20.50;87.60;;;;;;4899358;28;92215;-75
2022/07/29 04:51:30;;;;;;;1.88;0.60;;;20.50;87.00;;;;;;4908391;28;91982;-79
2022/07/29 04:53:56;;;;;;;3.05;0.15;;;20.40;88.00;;;;;;4907008;28;93275;-77
2022/07/29 04:56:22;;;;;;;1.13;0.10;;;20.30;87.80;;;;;;4908601;28;92362;-76
2022/07/29 04:58:48;;;;;;;1.90;0.22;;;20.30;87.90;;;;;;4908219;28;92080;-76
2022/07/29 05:01:14;;;;;;;0.77;0.32;;;20.20;88.30;;;;;;4908673;28;91822;-75
2022/07/29 05:03:40;;;;;;;3.55;0.30;;;20.10;88.60;;;;;;4899873;28;92555;-79
2022/07/29 05:06:06;;;;;;;1.02;0.28;;;20.10;87.60;;;;;;4898543;28;92092;-76
2022/07/29 05:08:32;;;;;;;3.15;0.38;;;20.20;88.00;;;;;;4898376;28;91653;-77
2022/07/29 05:10:58;;;;;;;1.20;0.68;;;20.20;86.80;;;;;;4899865;28;91180;-78
2022/07/29 05:13:23;;;;;;;1.95;0.30;;;20.10;87.60;;;;;;4896064;28;92208;-78
2022/07/29 05:15:49;;;;;;;2.00;0.20;;;20.10;86.90;;;;;;4897329;28;92921;-77
2022/07/29 05:18:15;;;;;;;1.90;0.25;;;20.00;86.10;;;;;;4898983;28;93256;-78
2022/07/29 05:20:41;;;;;;;1.00;0.22;;;19.60;88.50;;;;;;4901187;28;92708;-82
2022/07/29 05:23:07;;;;;;;0.75;0.30;;;19.80;88.00;;;;;;4899005;28;91966;-78
2022/07/29 05:25:32;;;;;;;0.70;0.28;;;19.90;87.00;;;;;;4898371;28;92335;-80
2022/07/29 05:27:58;;;;;;;3.85;0.40;;;20.10;87.00;;;;;;4899027;28;92001;-78
2022/07/29 05:30:24;;;;;;;1.10;0.25;;;20.30;86.40;;;;;;4899175;28;92436;-78
2022/07/29 05:32:50;;;;;;;2.53;0.52;;;20.30;86.90;;;;;;4897339;28;93239;-79
2022/07/29 05:35:16;;;;;;;1.00;0.15;;;20.40;87.00;;;;;;4896844;28;91805;-79
2022/07/29 05:37:42;;;;;;;0.63;0.20;;;20.70;87.20;;;;;;4898627;28;92355;-78
2022/07/29 05:40:08;;;;;;;1.17;0.43;;;20.80;86.60;;;;;;4899121;28;92041;-80
2022/07/29 05:42:34;;;;;;;2.17;0.38;;;20.90;85.60;;;;;;4890013;28;96238;-79
2022/07/29 05:45:01;;;;;;;2.53;0.60;;;20.80;85.60;;;;;;4898390;28;93818;-78
2022/07/29 05:47:26;;;;;;;2.88;0.32;;;20.60;86.20;;;;;;4898278;28;92014;-78
2022/07/29 05:49:52;;;;;;;3.17;0.32;;;20.50;86.10;;;;;;4897007;28;92271;-79
2022/07/29 05:52:18;;;;;;;5.68;0.43;;;20.40;86.30;;;;;;4896926;28;92503;-78
2022/07/29 05:54:44;;;;;;;4.25;0.68;;;20.40;86.90;;;;;;4895367;28;92922;-80
2022/07/29 05:57:17;;;;;;;1.73;0.40;;;20.30;86.80;;;;;;4888912;28;92213;-78
2022/07/29 05:59:43;;;;;;;1.33;0.40;;;20.20;87.10;;;;;;4898757;28;91710;-77
2022/07/29 06:02:09;;;;;;;1.10;0.30;;;20.10;88.50;;;;;;4897416;28;92681;-80
2022/07/29 06:04:34;;;;;;;2.05;0.40;;;20.10;87.70;;;;;;4898262;28;93244;-78
2022/07/29 06:07:01;;;;;;;2.50;0.30;;;20.10;88.70;;;;;;4897948;28;93170;-79
2022/07/29 06:09:27;;;;;;;2.35;0.70;;;20.00;88.50;;;;;;4898577;28;91777;-79
2022/07/29 06:11:52;;;;;;;1.35;0.20;;;19.90;89.30;;;;;;4887413;28;92352;-78
2022/07/29 06:14:19;;;;;;;3.90;0.25;;;19.90;89.90;;;;;;4897348;28;91963;-79
2022/07/29 06:16:45;;;;;;;1.45;0.28;;;19.90;90.10;;;;;;4898461;28;91705;-77
2022/07/29 06:19:11;;;;;;;1.15;0.40;;;19.90;90.50;;;;;;4898171;28;91991;-79
2022/07/29 06:21:40;;;;;;;1.50;0.25;;;19.70;91.40;;;;;;4897991;28;92137;-80
2022/07/29 06:24:06;;;;;;;3.28;0.30;;;19.60;91.70;;;;;;4898348;28;92048;-79
2022/07/29 06:26:33;;;;;;;1.27;0.20;;;19.60;91.70;;;;;;4897764;28;92105;-78
2022/07/29 06:28:59;;;;;;;0.90;0.20;;;19.60;91.20;;;;;;4901287;28;91981;-78
2022/07/29 06:31:24;;;;;;;2.88;0.30;;;19.60;91.80;;;;;;4897562;28;94181;-78
2022/07/29 06:33:50;;;;;;;4.50;0.85;;;19.70;91.40;;;;;;4897520;28;92283;-78
2022/07/29 06:36:16;;;;;;;8.25;0.60;;;19.70;91.10;;;;;;4898495;28;92084;-79
2022/07/29 06:38:41;;;;;;;5.05;0.22;;;19.70;91.20;;;;;;4897694;28;92133;-77
2022/07/29 06:41:12;;;;;;;1.40;0.47;;;19.70;90.70;;;;;;4901454;28;92190;-77
2022/07/29 06:43:42;;;;;;;2.63;0.32;;;19.80;90.70;;;;;;4903157;28;92033;-76
2022/07/29 06:46:10;;;;;;;1.88;0.38;;;19.90;89.80;;;;;;4900870;28;92077;-79
2022/07/29 06:48:36;;;;;;;1.13;0.32;;;19.90;90.20;;;;;;4898623;28;91328;-77
2022/07/29 06:51:04;;;;;;;1.92;0.38;;;20.10;89.50;;;;;;4895929;28;92218;-77
2022/07/29 06:53:30;;;;;;;1.55;0.30;;;20.20;89.40;;;;;;4896894;28;92215;-77
2022/07/29 06:55:57;;;;;;;1.98;0.30;;;20.40;89.30;;;;;;4897239;28;93370;-77
2022/07/29 06:58:24;;;;;;;1.50;0.30;;;20.70;87.20;;;;;;4897499;28;92514;-77
2022/07/29 07:00:50;;;;;;;2.45;0.38;;;21.00;85.20;;;;;;4897149;28;92800;-77
2022/07/29 07:03:16;;;;;;;1.33;0.30;;;21.20;85.00;;;;;;4895630;28;92335;-77
2022/07/29 07:05:42;;;;;;;1.73;0.30;;;21.30;84.10;;;;;;4896744;28;92200;-77
2022/07/29 07:08:09;;;;;;;1.02;0.30;;;21.60;84.40;;;;;;4897462;28;91952;-77
2022/07/29 07:10:34;;;;;;;2.97;0.30;;;22.00;82.20;;;;;;4902870;28;92241;-77
2022/07/29 07:13:01;;;;;;;2.05;0.30;;;22.40;80.50;;;;;;4898629;28;92238;-77
2022/07/29 07:15:27;;;;;;;1.58;0.50;;;24.00;77.60;;;;;;4897146;28;92019;-77
2022/07/29 07:17:53;;;;;;;1.98;0.43;;;26.30;70.70;;;;;;4896877;28;92085;-77
2022/07/29 07:20:19;;;;;;;1.02;0.30;;;27.30;63.30;;;;;;4895861;28;93069;-77
2022/07/29 07:22:45;;;;;;;3.00;0.55;;;26.00;64.40;;;;;;4895622;28;93146;-79
2022/07/29 07:25:12;;;;;;;2.60;0.40;;;25.20;65.60;;;;;;4896913;28;91975;-77
2022/07/29 07:27:39;;;;;;;1.33;0.28;;;24.60;69.00;;;;;;4896772;28;93259;-77
2022/07/29 07:30:06;;;;;;;2.67;0.55;;;24.90;68.50;;;;;;4896646;28;92954;-77
2022/07/29 07:32:33;;;;;;;4.50;0.40;;;25.90;68.40;;;;;;4893894;28;92017;-78
2022/07/29 07:34:59;;;;;;;1.23;0.30;;;26.90;65.90;;;;;;4896798;28;92597;-78
2022/07/29 07:37:25;;;;;;;2.72;0.60;;;26.80;63.70;;;;;;4896551;28;91312;-78
2022/07/29 07:39:51;;;;;;;1.08;0.22;;;26.10;64.70;;;;;;4897464;28;92138;-78
2022/07/29 07:42:17;;;;;;;1.50;0.43;;;25.00;67.90;;;;;;4899189;28;93760;-78
2022/07/29 07:44:45;;;;;;;1.20;0.60;;;25.40;68.50;;;;;;4899781;28;92669;-78
2022/07/29 07:47:12;;;;;;;2.67;0.90;;;26.10;67.00;;;;;;4886993;28;92366;-78
2022/07/29 07:49:38;;;;;;;3.83;0.43;;;26.50;66.60;;;;;;4893632;28;91570;-78
2022/07/29 07:52:04;;;;;;;2.05;0.50;;;27.20;66.30;;;;;;4898459;28;92068;-77
2022/07/29 07:54:30;;;;;;;1.20;0.35;;;27.90;65.30;;;;;;4900764;28;92554;-78
2022/07/29 07:56:56;;;;;;;3.35;0.65;;;28.60;63.20;;;;;;4899840;28;92506;-78
2022/07/29 07:59:22;;;;;;;2.78;0.47;;;29.00;62.20;;;;;;4898284;28;92302;-78
2022/07/29 08:01:48;;;;;;;1.35;0.52;;;29.10;62.80;;;;;;4899634;28;92249;-78
2022/07/29 08:04:14;;;;;;;1.98;0.75;;;29.10;64.00;;;;;;4899248;28;92415;-78
2022/07/29 08:06:39;;;;;;;2.13;0.73;;;29.10;63.90;;;;;;4899541;28;92335;-78
2022/07/29 08:09:06;;;;;;;2.42;0.75;;;28.70;63.90;;;;;;4898169;28;93124;-78
2022/07/29 08:11:32;;;;;;;4.28;0.75;;;27.70;65.90;;;;;;4898945;28;93704;-77
2022/07/29 08:13:57;;;;;;;2.45;0.95;;;26.80;68.50;;;;;;4899715;28;91916;-78
2022/07/29 08:16:24;;;;;;;1.10;0.50;;;25.70;72.20;;;;;;4899384;28;92099;-79
2022/07/29 08:18:51;;;;;;;3.25;0.70;;;25.40;73.40;;;;;;4898373;28;92305;-79
2022/07/29 08:21:17;;;;;;;1.55;0.90;;;25.00;75.30;;;;;;4899473;28;92399;-80
2022/07/29 08:23:49;;;;;;;20.50;2.00;;;24.70;77.20;;;;;;4899789;28;91953;-79
2022/07/29 08:26:15;;;;;;;2.53;0.40;;;24.30;77.30;;;;;;4899698;28;91381;-77
2022/07/29 08:28:45;;;;;;;2.47;0.30;;;24.20;75.00;;;;;;4896931;28;92351;-78
2022/07/29 08:31:12;;;;;;;0.95;0.30;;;24.20;72.10;;;;;;4898935;28;92873;-78
2022/07/29 08:33:38;;;;;;;0.80;0.20;;;24.20;71.00;;;;;;4898841;28;93181;-78
2022/07/29 08:36:05;;;;;;;1.40;0.60;;;24.00;70.90;;;;;;4898836;28;92077;-78
2022/07/29 08:38:31;;;;;;;3.40;0.55;;;23.70;71.00;;;;;;4897274;28;91948;-78
2022/07/29 08:40:57;;;;;;;1.33;0.30;;;23.40;73.20;;;;;;4899898;28;92406;-78
2022/07/29 08:43:23;;;;;;;0.82;0.43;;;23.30;71.30;;;;;;4899591;28;92374;-78
2022/07/29 08:45:50;;;;;;;1.90;0.40;;;23.30;74.10;;;;;;4897279;28;92623;-78
2022/07/29 08:48:18;;;;;;;1.77;0.40;;;23.40;74.10;;;;;;4898171;28;92361;-78
2022/07/29 08:50:45;;;;;;;2.70;0.57;;;23.10;75.40;;;;;;4897468;28;91832;-77
2022/07/29 08:53:13;;;;;;;1.45;0.38;;;23.20;75.10;;;;;;4898361;28;92048;-78
2022/07/29 08:55:48;;;;;;;2.60;0.60;;;23.10;76.90;;;;;;4898161;28;92073;-78
2022/07/29 08:58:15;;;;;;;1.15;0.38;;;23.00;77.50;;;;;;4897767;28;93297;-78
2022/07/29 09:00:48;;;;;;;2.55;0.30;;;23.20;79.70;;;;;;4897979;28;93418;-78
2022/07/29 09:03:18;;;;;;;3.25;0.43;;;24.90;78.20;;;;;;4898819;28;92081;-78
2022/07/29 09:05:46;;;;;;;2.35;0.68;;;27.30;66.40;;;;;;4896139;28;92052;-79
2022/07/29 09:08:13;;;;;;;2.08;0.90;;;27.80;65.20;;;;;;4897327;28;92614;-78
2022/07/29 09:10:39;;;;;;;2.78;0.60;;;27.90;63.20;;;;;;4881853;28;94804;-77
2022/07/29 09:13:05;;;;;;;4.15;0.43;;;27.20;63.30;;;;;;4898068;28;91982;-79
2022/07/29 09:15:31;;;;;;;1.10;0.25;;;26.30;66.20;;;;;;4899009;28;91643;-77
2022/07/29 09:17:58;;;;;;;1.35;0.40;;;25.30;68.40;;;;;;4898586;28;93240;-77
2022/07/29 09:20:25;;;;;;;2.95;0.22;;;24.60;71.90;;;;;;4896461;28;92090;-78
2022/07/29 09:22:54;;;;;;;4.13;0.55;;;24.30;73.10;;;;;;4897799;28;93302;-76
2022/07/29 09:25:37;;;;;;;1.27;0.30;;;24.10;73.80;;;;;;4899400;28;91781;-77
2022/07/29 09:28:14;;;;;;;1.63;0.30;;;23.60;75.30;;;;;;4899208;28;92406;-77
2022/07/29 09:30:54;;;;;;;1.35;0.32;;;23.50;77.60;;;;;;4898963;28;91854;-77
2022/07/29 09:33:22;;;;;;;1.30;0.57;;;23.70;78.20;;;;;;4896323;28;92509;-77
2022/07/29 09:36:03;;;;;;;2.38;0.40;;;23.90;77.30;;;;;;4898602;28;92518;-76
2022/07/29 09:38:28;;;;;;;1.67;0.45;;;24.10;76.20;;;;;;4897955;28;93246;-77
2022/07/29 09:40:59;;;;;;;1.00;0.40;;;24.30;75.80;;;;;;4899295;28;91951;-77
2022/07/29 09:43:25;;;;;;;1.25;0.40;;;24.30;74.60;;;;;;4897814;28;91984;-76
2022/07/29 09:45:51;;;;;;;2.17;0.47;;;24.30;74.70;;;;;;4897507;28;92153;-78
2022/07/29 09:48:24;;;;;;;1.40;0.43;;;24.40;76.10;;;;;;4895549;28;95921;-79
2022/07/29 09:50:50;;;;;;;3.15;0.43;;;24.30;74.50;;;;;;4894505;28;92205;-77
2022/07/29 09:53:32;;;;;;;1.80;0.43;;;24.30;75.40;;;;;;4896143;28;92333;-78
2022/07/29 09:55:58;;;;;;;1.42;0.57;;;24.10;76.60;;;;;;4897700;28;91945;-77
2022/07/29 09:58:24;;;;;;;1.65;0.52;;;24.10;75.50;;;;;;4897274;28;93159;-77
2022/07/29 10:00:51;;;;;;;2.05;0.52;;;24.10;75.60;;;;;;4898202;28;92890;-79
2022/07/29 10:03:17;;;;;;;2.55;0.60;;;24.30;76.40;;;;;;4898045;28;92411;-79
2022/07/29 10:05:44;;;;;;;2.40;1.10;;;24.50;74.90;;;;;;4897630;28;92936;-77
2022/07/29 10:08:12;;;;;;;2.63;0.82;;;24.80;74.00;;;;;;4896888;28;92789;-78
2022/07/29 10:10:42;;;;;;;2.40;0.70;;;25.10;71.70;;;;;;4901885;28;92200;-78
2022/07/29 10:13:10;;;;;;;1.67;0.60;;;24.90;73.60;;;;;;4898347;28;93135;-79
2022/07/29 10:15:40;;;;;;;2.47;0.73;;;25.00;73.30;;;;;;4898471;28;92442;-76
2022/07/29 10:18:07;;;;;;;1.15;0.50;;;25.30;72.80;;;;;;4897986;28;92096;-76
2022/07/29 10:20:33;;;;;;;2.97;0.57;;;25.40;73.40;;;;;;4894986;28;92011;-76
2022/07/29 10:23:00;;;;;;;1.27;0.55;;;25.80;72.80;;;;;;4897283;28;92183;-77
2022/07/29 10:25:26;;;;;;;2.42;0.88;;;25.60;74.80;;;;;;4897490;28;92560;-76
2022/07/29 10:27:53;;;;;;;3.08;0.77;;;26.30;70.60;;;;;;4896850;28;92085;-78
2022/07/29 10:30:20;;;;;;;2.75;0.80;;;26.40;69.80;;;;;;4897073;28;92074;-77
2022/07/29 10:33:15;;;;;;;2.45;0.52;;;27.10;67.50;;;;;;4897798;28;91976;-76
2022/07/29 10:36:19;;;;;;;1.40;0.90;;;27.20;69.00;;;;;;4897073;28;91993;-76
2022/07/29 10:38:51;;;;;;;2.70;0.60;;;26.60;67.60;;;;;;4895060;28;93199;-76
2022/07/29 10:41:34;;;;;;;2.15;0.73;;;26.20;68.30;;;;;;4895351;28;92649;-76
2022/07/29 10:44:07;;;;;;;1.80;0.93;;;26.60;67.50;;;;;;4897463;28;92356;-77
2022/07/29 10:46:38;;;;;;;1.65;0.70;;;26.70;67.00;;;;;;4896630;28;92125;-77
2022/07/29 10:49:04;;;;;;;1.73;0.60;;;26.90;67.10;;;;;;4896784;28;92253;-76
2022/07/29 10:52:09;;;;;;;1.33;0.70;;;26.80;66.30;;;;;;4895710;28;92371;-78
2022/07/29 10:54:34;;;;;;;2.35;0.47;;;26.30;61.70;;;;;;4858400;28;92412;-76
2022/07/29 10:57:30;;;;;;;1.15;0.40;;;25.80;64.80;;;;;;4897545;28;92767;-77
2022/07/29 11:00:03;;;;;;;3.22;0.52;;;26.30;63.80;;;;;;4894264;28;93502;-77
2022/07/29 11:02:39;;;;;;;2.33;0.52;;;26.90;63.10;;;;;;4894592;28;92165;-77
2022/07/29 11:05:20;;;;;;;2.03;0.75;;;27.40;62.40;;;;;;4896997;28;93093;-76
2022/07/29 11:08:17;;;;;;;2.10;0.63;;;27.90;60.10;;;;;;4897150;28;92094;-77
2022/07/29 11:10:43;;;;;;;2.80;0.70;;;28.10;61.30;;;;;;4899678;28;92670;-76
2022/07/29 11:13:09;;;;;;;1.95;0.43;;;28.50;60.70;;;;;;4899253;28;92802;-76
2022/07/29 11:15:57;;;;;;;3.40;0.52;;;28.70;61.40;;;;;;4899184;28;91975;-76
2022/07/29 11:18:23;;;;;;;2.47;0.50;;;28.70;57.70;;;;;;4897121;28;92264;-77
2022/07/29 11:20:52;;;;;;;2.47;0.90;;;28.80;58.20;;;;;;4895704;28;93013;-77
2022/07/29 11:23:24;;;;;;;3.60;0.90;;;29.00;59.70;;;;;;4897228;28;91956;-77
2022/07/29 11:26:27;;;;;;;13.38;3.58;;;29.20;56.90;;;;;;4896548;28;92105;-76
2022/07/29 11:28:55;;;;;;;1.70;1.00;;;29.10;58.30;;;;;;4896780;28;91927;-77
2022/07/29 11:31:42;;;;;;;1.50;0.60;;;29.20;56.40;;;;;;4895542;28;94186;-78
2022/07/29 11:34:29;;;;;;;6.63;2.45;;;28.80;57.00;;;;;;4896205;28;93407;-77
2022/07/29 11:37:07;;;;;;;1.30;0.60;;;28.30;59.40;;;;;;4896275;28;92005;-77
2022/07/29 11:39:37;;;;;;;1.98;0.98;;;28.00;60.60;;;;;;4897135;28;91668;-76
2022/07/29 11:42:22;;;;;;;3.47;0.80;;;27.90;60.10;;;;;;4895348;28;92202;-76
2022/07/29 11:44:58;;;;;;;4.25;0.80;;;28.20;58.40;;;;;;4896472;28;92147;-77
2022/07/29 11:47:28;;;;;;;1.95;1.00;;;28.10;59.90;;;;;;4896852;28;91966;-77
2022/07/29 11:49:57;;;;;;;1.25;0.68;;;27.80;60.10;;;;;;4896098;28;91377;-78
2022/07/29 11:52:23;;;;;;;2.05;0.75;;;27.70;57.10;;;;;;4895573;28;92649;-76
2022/07/29 11:54:50;;;;;;;1.95;0.73;;;27.50;60.00;;;;;;4896040;28;92338;-76
2022/07/29 11:57:19;;;;;;;1.48;0.60;;;27.50;62.30;;;;;;4896099;28;92896;-78
2022/07/29 11:59:47;;;;;;;1.75;1.05;;;27.70;60.70;;;;;;4896598;28;92115;-77
2022/07/29 12:02:14;;;;;;;2.80;0.68;;;27.80;63.40;;;;;;4895024;28;92117;-77
2022/07/29 12:04:53;;;;;;;1.35;0.68;;;27.70;62.00;;;;;;4896155;28;92148;-77
2022/07/29 12:07:28;;;;;;;3.17;0.75;;;27.40;62.70;;;;;;4895805;28;92121;-79
2022/07/29 12:09:54;;;;;;;4.70;0.70;;;27.20;63.80;;;;;;4897626;28;92002;-78
2022/07/29 12:12:20;;;;;;;2.72;0.70;;;27.40;63.20;;;;;;4903602;28;92187;-78
2022/07/29 12:14:47;;;;;;;1.63;0.82;;;27.60;60.80;;;;;;4896391;28;92925;-78
2022/07/29 12:17:33;;;;;;;3.13;0.85;;;27.30;62.50;;;;;;4896523;28;92409;-78
2022/07/29 12:20:04;;;;;;;2.25;0.95;;;27.40;62.60;;;;;;4896035;28;92044;-78
2022/07/29 12:22:33;;;;;;;2.20;0.47;;;27.90;61.40;;;;;;4894867;28;94577;-78
2022/07/29 12:25:05;;;;;;;1.98;0.70;;;28.00;60.60;;;;;;4895365;28;92183;-78
2022/07/29 12:27:32;;;;;;;1.77;0.57;;;27.90;57.60;;;;;;4898881;28;92124;-78
2022/07/29 12:30:03;;;;;;;2.00;0.70;;;27.30;59.70;;;;;;4899690;28;92401;-78
2022/07/29 12:32:47;;;;;;;2.47;0.77;;;27.60;60.10;;;;;;4897787;28;94083;-79
2022/07/29 12:35:14;;;;;;;2.05;0.80;;;27.40;60.50;;;;;;4898834;28;92855;-78
2022/07/29 12:37:41;;;;;;;1.88;0.70;;;27.30;63.10;;;;;;4898929;28;92476;-78
2022/07/29 12:40:10;;;;;;;1.95;0.77;;;27.60;63.60;;;;;;4899442;28;91052;-78
2022/07/29 12:42:37;;;;;;;2.42;0.82;;;27.90;61.80;;;;;;4897946;28;92447;-78
2022/07/29 12:45:04;;;;;;;2.55;0.88;;;28.00;62.70;;;;;;4898679;28;92409;-78
2022/07/29 12:47:30;;;;;;;1.52;0.70;;;27.90;61.70;;;;;;4897391;28;92974;-79
2022/07/29 12:50:11;;;;;;;3.25;0.98;;;27.90;59.60;;;;;;4898820;28;92027;-78
2022/07/29 12:52:37;;;;;;;1.67;0.80;;;27.40;59.90;;;;;;4897908;28;92170;-78
2022/07/29 12:55:04;;;;;;;1.88;0.82;;;27.30;61.00;;;;;;4898924;28;92215;-78
2022/07/29 12:57:31;;;;;;;1.10;0.43;;;27.40;60.90;;;;;;4898718;28;92092;-77
2022/07/29 13:00:10;;;;;;;2.05;0.70;;;27.30;61.60;;;;;;4899102;28;92364;-79
2022/07/29 13:02:37;;;;;;;1.88;0.80;;;27.00;62.00;;;;;;4898120;28;92306;-78
2022/07/29 13:05:04;;;;;;;1.15;0.52;;;26.60;63.20;;;;;;4899367;28;91928;-78
2022/07/29 13:07:32;;;;;;;1.67;0.68;;;26.50;64.10;;;;;;4899072;28;92079;-79
2022/07/29 13:10:19;;;;;;;4.10;0.90;;;26.70;64.20;;;;;;4900837;28;92010;-77
2022/07/29 13:13:06;;;;;;;2.58;1.02;;;26.20;64.40;;;;;;4903852;28;93223;-79
2022/07/29 13:15:33;;;;;;;1.88;0.70;;;25.90;64.40;;;;;;4898722;28;92398;-81
2022/07/29 13:17:59;;;;;;;4.82;0.80;;;25.50;65.10;;;;;;4898424;28;92105;-79
2022/07/29 13:20:29;;;;;;;4.95;1.67;;;25.20;66.50;;;;;;4899069;28;91478;-77
2022/07/29 13:22:56;;;;;;;1.67;0.90;;;24.90;67.70;;;;;;4897353;28;92044;-79
2022/07/29 13:25:30;;;;;;;2.17;0.60;;;25.00;67.90;;;;;;4898772;28;92008;-78
2022/07/29 13:27:56;;;;;;;1.95;0.70;;;25.20;68.30;;;;;;4899207;28;91813;-79
2022/07/29 13:30:23;;;;;;;3.70;0.73;;;25.40;66.90;;;;;;4899365;28;90917;-78
2022/07/29 13:32:49;;;;;;;2.22;0.68;;;25.40;68.70;;;;;;4897648;28;92269;-78
2022/07/29 13:35:16;;;;;;;1.70;0.80;;;25.30;68.40;;;;;;4898369;28;92270;-78
2022/07/29 13:37:42;;;;;;;5.28;1.10;;;25.00;68.80;;;;;;4897409;28;93081;-77
2022/07/29 13:40:09;;;;;;;2.65;0.77;;;24.80;70.50;;;;;;4898555;28;92565;-78
2022/07/29 13:42:35;;;;;;;4.45;1.98;;;24.70;71.00;;;;;;4897736;28;92435;-78
2022/07/29 13:45:02;;;;;;;2.42;1.13;;;24.60;70.90;;;;;;4898225;28;92931;-78
2022/07/29 13:47:28;;;;;;;4.57;0.98;;;24.70;70.80;;;;;;4897445;28;92911;-79
2022/07/29 13:49:54;;;;;;;3.78;1.17;;;24.80;71.20;;;;;;4897810;28;92040;-80
2022/07/29 13:52:20;;;;;;;2.42;0.65;;;24.70;71.20;;;;;;4890238;28;91930;-77
2022/07/29 13:54:46;;;;;;;2.58;0.80;;;25.00;71.40;;;;;;4879167;28;92443;-79
2022/07/29 13:57:13;;;;;;;1.83;0.65;;;25.40;69.80;;;;;;4879566;28;92178;-78
2022/07/29 13:59:42;;;;;;;1.67;0.88;;;25.40;69.40;;;;;;4879458;28;92006;-78
2022/07/29 14:02:08;;;;;;;;;;;25.20;70.70;;;;;;4883082;28;93723;-78
2022/07/29 14:04:34;;;;;;;1.85;1.00;;;25.30;71.10;;;;;;4897576;28;91921;-78
2022/07/29 14:07:00;;;;;;;2.25;1.10;;;25.10;70.20;;;;;;4897856;28;92205;-78
2022/07/29 14:09:26;;;;;;;2.22;0.95;;;24.90;70.70;;;;;;4898339;28;92093;-79
2022/07/29 14:11:52;;;;;;;1.42;0.95;;;24.90;70.40;;;;;;4913980;28;92158;-77
2022/07/29 14:14:18;;;;;;;2.13;0.93;;;24.90;70.90;;;;;;4909174;28;92551;-77
2022/07/29 14:16:44;;;;;;;1.88;1.30;;;24.70;71.00;;;;;;4897648;28;92046;-79
2022/07/29 14:19:10;;;;;;;2.38;0.80;;;24.90;71.70;;;;;;4898649;28;91170;-78
2022/07/29 14:21:37;;;;;;;1.90;0.93;;;25.10;70.10;;;;;;4897828;28;92277;-78
2022/07/29 14:24:03;;;;;;;2.90;0.90;;;25.20;70.50;;;;;;4892004;28;92841;-78
2022/07/29 14:26:29;;;;;;;4.07;1.05;;;25.30;69.30;;;;;;4878390;28;92967;-77
2022/07/29 14:28:55;;;;;;;2.08;0.82;;;25.40;70.00;;;;;;4878858;28;92423;-77
2022/07/29 14:31:20;;;;;;;1.67;0.80;;;25.10;71.30;;;;;;4878058;28;92170;-77
2022/07/29 14:33:46;;;;;;;2.72;0.80;;;25.00;72.60;;;;;;4880592;28;92318;-79
2022/07/29 14:36:12;;;;;;;2.85;0.93;;;25.10;73.50;;;;;;4897821;28;92002;-78
2022/07/29 14:38:38;;;;;;;2.25;0.70;;;24.90;73.70;;;;;;4897096;28;91899;-78
2022/07/29 14:41:04;;;;;;;2.13;0.90;;;24.80;75.40;;;;;;4896844;28;92464;-77
2022/07/29 14:43:30;;;;;;;2.13;0.80;;;24.80;75.60;;;;;;4896353;28;91323;-79
2022/07/29 14:45:56;;;;;;;1.85;0.55;;;24.70;75.40;;;;;;4897284;28;92226;-77
2022/07/29 14:48:21;;;;;;;2.22;0.85;;;24.60;75.40;;;;;;4897130;28;93965;-77
2022/07/29 14:50:47;;;;;;;4.75;1.17;;;24.60;75.40;;;;;;4896629;28;93438;-77
2022/07/29 14:53:13;;;;;;;1.55;0.65;;;24.60;75.60;;;;;;4897370;28;93025;-77
2022/07/29 14:55:40;;;;;;;3.05;1.00;;;24.60;75.90;;;;;;4896671;28;92082;-78
2022/07/29 14:58:06;;;;;;;1.98;1.10;;;24.50;76.10;;;;;;4897757;28;91945;-77
2022/07/29 15:00:33;;;;;;;1.63;0.70;;;24.40;77.30;;;;;;4896590;28;91694;-78
2022/07/29 15:02:59;;;;;;;2.05;0.90;;;24.40;77.00;;;;;;4897504;28;92370;-78
2022/07/29 15:05:26;;;;;;;3.55;0.95;;;24.10;76.80;;;;;;4895178;28;92067;-78
2022/07/29 15:07:52;;;;;;;3.00;0.90;;;23.80;77.10;;;;;;4897518;28;91379;-78
2022/07/29 15:10:18;;;;;;;2.33;1.25;;;23.50;79.90;;;;;;4901689;28;91892;-77
2022/07/29 15:12:44;;;;;;;2.25;0.93;;;23.30;80.60;;;;;;4915676;28;92126;-79
2022/07/29 15:15:09;;;;;;;1.77;0.65;;;23.20;80.50;;;;;;4891855;28;93555;-76
2022/07/29 15:17:35;;;;;;;3.28;0.82;;;23.00;81.10;;;;;;4878363;28;92493;-77
2022/07/29 15:20:01;;;;;;;2.47;0.80;;;22.90;82.30;;;;;;4879784;28;92678;-78
2022/07/29 15:22:27;;;;;;;3.03;0.57;;;22.70;84.00;;;;;;4896936;28;92177;-77
2022/07/29 15:24:53;;;;;;;2.05;0.60;;;22.80;83.80;;;;;;4895671;28;92108;-78
2022/07/29 15:27:18;;;;;;;2.03;0.80;;;22.80;82.20;;;;;;4896746;28;91931;-77
2022/07/29 15:29:44;;;;;;;1.70;0.73;;;22.90;83.50;;;;;;4896511;28;92174;-77
2022/07/29 15:32:10;;;;;;;1.40;0.57;;;22.80;84.40;;;;;;4896433;28;91307;-78
2022/07/29 15:34:37;;;;;;;2.10;0.63;;;22.70;84.40;;;;;;4895877;28;92162;-79
2022/07/29 15:37:04;;;;;;;1.52;0.70;;;22.80;85.40;;;;;;4897234;28;92136;-79
2022/07/29 15:39:30;;;;;;;2.13;0.75;;;22.80;84.50;;;;;;4895274;28;93042;-78
2022/07/29 15:41:56;;;;;;;2.58;0.75;;;22.80;85.50;;;;;;4896439;28;92832;-78